sensor_id;sensor_type;location;lat;lon;timestamp;P1;durP1;ratioP1;P2;durP2;ratioP2
13114;SDS011;6623;52.120;8.660;2023-03-01T00:01:44;11.70;;;7.87;;
13114;SDS011;6623;52.120;8.660;2023-03-01T00:04:10;8.57;;;7.67;;
13114;SDS011;6623;52.120;8.660;2023-03-01T00:06:35;12.40;;;8.50;;
13114;SDS011;6623;52.120;8.660;2023-03-01T00:09:02;9.88;;;7.40;;
13114;SDS011;6623;52.120;8.660;2023-03-01T00:11:28;12.05;;;8.23;;
13114;SDS011;6623;52.120;8.660;2023-03-01T00:13:57;11.90;;;7.82;;
13114;SDS011;6623;52.120;8.660;2023-03-01T00:16:34;9.95;;;8.00;;
13114;SDS011;6623;52.120;8.660;2023-03-01T00:19:07;10.40;;;8.23;;
13114;SDS011;6623;52.120;8.660;2023-03-01T00:21:37;9.88;;;7.35;;
13114;SDS011;6623;52.120;8.660;2023-03-01T00:24:03;9.63;;;7.47;;
13114;SDS011;6623;52.120;8.660;2023-03-01T00:26:29;10.10;;;7.80;;
13114;SDS011;6623;52.120;8.660;2023-03-01T00:28:56;8.77;;;7.20;;
13114;SDS011;6623;52.120;8.660;2023-03-01T00:31:23;11.48;;;8.02;;
13114;SDS011;6623;52.120;8.660;2023-03-01T00:33:54;10.55;;;7.60;;
13114;SDS011;6623;52.120;8.660;2023-03-01T00:36:32;9.65;;;7.90;;
13114;SDS011;6623;52.120;8.660;2023-03-01T00:39:00;10.20;;;8.02;;
13114;SDS011;6623;52.120;8.660;2023-03-01T00:41:26;10.10;;;7.93;;
13114;SDS011;6623;52.120;8.660;2023-03-01T00:43:52;10.00;;;7.33;;
13114;SDS011;6623;52.120;8.660;2023-03-01T00:46:19;11.27;;;7.75;;
13114;SDS011;6623;52.120;8.660;2023-03-01T00:48:46;10.65;;;8.18;;
13114;SDS011;6623;52.120;8.660;2023-03-01T00:51:13;10.77;;;8.20;;
13114;SDS011;6623;52.120;8.660;2023-03-01T00:53:41;9.65;;;7.68;;
13114;SDS011;6623;52.120;8.660;2023-03-01T00:56:07;9.80;;;7.90;;
13114;SDS011;6623;52.120;8.660;2023-03-01T00:58:34;11.50;;;8.43;;
13114;SDS011;6623;52.120;8.660;2023-03-01T01:01:00;10.35;;;7.97;;
13114;SDS011;6623;52.120;8.660;2023-03-01T01:03:31;11.45;;;8.50;;
13114;SDS011;6623;52.120;8.660;2023-03-01T01:05:57;11.43;;;8.37;;
13114;SDS011;6623;52.120;8.660;2023-03-01T01:08:22;11.47;;;8.83;;
13114;SDS011;6623;52.120;8.660;2023-03-01T01:10:48;12.93;;;8.07;;
13114;SDS011;6623;52.120;8.660;2023-03-01T01:13:13;11.30;;;8.50;;
13114;SDS011;6623;52.120;8.660;2023-03-01T01:15:39;11.40;;;8.47;;
13114;SDS011;6623;52.120;8.660;2023-03-01T01:18:05;12.07;;;8.37;;
13114;SDS011;6623;52.120;8.660;2023-03-01T01:20:31;10.82;;;7.82;;
13114;SDS011;6623;52.120;8.660;2023-03-01T01:22:56;12.97;;;8.00;;
13114;SDS011;6623;52.120;8.660;2023-03-01T01:25:22;13.10;;;8.07;;
13114;SDS011;6623;52.120;8.660;2023-03-01T01:27:52;11.43;;;7.55;;
13114;SDS011;6623;52.120;8.660;2023-03-01T01:30:17;11.03;;;8.37;;
13114;SDS011;6623;52.120;8.660;2023-03-01T01:32:43;10.60;;;8.20;;
13114;SDS011;6623;52.120;8.660;2023-03-01T01:35:09;11.20;;;7.73;;
13114;SDS011;6623;52.120;8.660;2023-03-01T01:37:34;9.93;;;7.90;;
13114;SDS011;6623;52.120;8.660;2023-03-01T01:40:00;9.13;;;6.90;;
13114;SDS011;6623;52.120;8.660;2023-03-01T01:42:28;9.05;;;7.15;;
13114;SDS011;6623;52.120;8.660;2023-03-01T01:47:50;10.50;;;7.25;;
13114;SDS011;6623;52.120;8.660;2023-03-01T01:50:17;8.15;;;6.78;;
13114;SDS011;6623;52.120;8.660;2023-03-01T01:52:44;9.30;;;6.93;;
13114;SDS011;6623;52.120;8.660;2023-03-01T01:55:11;8.65;;;6.72;;
13114;SDS011;6623;52.120;8.660;2023-03-01T01:57:43;10.20;;;6.85;;
13114;SDS011;6623;52.120;8.660;2023-03-01T02:00:16;10.20;;;7.40;;
13114;SDS011;6623;52.120;8.660;2023-03-01T02:02:44;11.50;;;7.40;;
13114;SDS011;6623;52.120;8.660;2023-03-01T02:05:16;8.43;;;6.90;;
13114;SDS011;6623;52.120;8.660;2023-03-01T02:07:47;12.73;;;7.88;;
13114;SDS011;6623;52.120;8.660;2023-03-01T02:10:14;9.68;;;6.80;;
13114;SDS011;6623;52.120;8.660;2023-03-01T02:12:40;9.30;;;7.07;;
13114;SDS011;6623;52.120;8.660;2023-03-01T02:15:06;10.23;;;7.13;;
13114;SDS011;6623;52.120;8.660;2023-03-01T02:17:32;9.93;;;7.27;;
13114;SDS011;6623;52.120;8.660;2023-03-01T02:22:49;11.57;;;8.00;;
13114;SDS011;6623;52.120;8.660;2023-03-01T02:30:30;12.23;;;7.47;;
13114;SDS011;6623;52.120;8.660;2023-03-01T02:32:57;10.02;;;7.88;;
13114;SDS011;6623;52.120;8.660;2023-03-01T02:35:27;9.70;;;7.88;;
13114;SDS011;6623;52.120;8.660;2023-03-01T02:37:56;9.93;;;7.50;;
13114;SDS011;6623;52.120;8.660;2023-03-01T02:40:25;9.00;;;7.55;;
13114;SDS011;6623;52.120;8.660;2023-03-01T02:42:53;11.57;;;8.02;;
13114;SDS011;6623;52.120;8.660;2023-03-01T02:45:21;9.82;;;7.65;;
13114;SDS011;6623;52.120;8.660;2023-03-01T02:51:17;9.68;;;7.07;;
13114;SDS011;6623;52.120;8.660;2023-03-01T02:56:39;11.68;;;7.80;;
13114;SDS011;6623;52.120;8.660;2023-03-01T02:59:06;9.82;;;7.00;;
13114;SDS011;6623;52.120;8.660;2023-03-01T03:01:33;11.07;;;7.30;;
13114;SDS011;6623;52.120;8.660;2023-03-01T03:04:06;10.07;;;7.95;;
13114;SDS011;6623;52.120;8.660;2023-03-01T03:06:34;11.23;;;8.40;;
13114;SDS011;6623;52.120;8.660;2023-03-01T03:09:00;12.43;;;7.83;;
13114;SDS011;6623;52.120;8.660;2023-03-01T03:11:26;9.52;;;7.95;;
13114;SDS011;6623;52.120;8.660;2023-03-01T03:13:52;12.03;;;8.10;;
13114;SDS011;6623;52.120;8.660;2023-03-01T03:16:18;9.90;;;7.30;;
13114;SDS011;6623;52.120;8.660;2023-03-01T03:18:44;11.57;;;8.02;;
13114;SDS011;6623;52.120;8.660;2023-03-01T03:21:11;9.10;;;7.17;;
13114;SDS011;6623;52.120;8.660;2023-03-01T03:23:37;12.57;;;7.95;;
13114;SDS011;6623;52.120;8.660;2023-03-01T03:26:03;9.73;;;7.70;;
13114;SDS011;6623;52.120;8.660;2023-03-01T03:28:31;10.30;;;7.72;;
13114;SDS011;6623;52.120;8.660;2023-03-01T03:30:57;10.18;;;7.22;;
13114;SDS011;6623;52.120;8.660;2023-03-01T03:33:23;9.25;;;7.30;;
13114;SDS011;6623;52.120;8.660;2023-03-01T03:35:49;10.07;;;7.50;;
13114;SDS011;6623;52.120;8.660;2023-03-01T03:38:15;8.93;;;6.87;;
13114;SDS011;6623;52.120;8.660;2023-03-01T03:40:46;8.90;;;7.05;;
13114;SDS011;6623;52.120;8.660;2023-03-01T03:43:32;9.90;;;7.55;;
13114;SDS011;6623;52.120;8.660;2023-03-01T03:46:01;9.77;;;7.45;;
13114;SDS011;6623;52.120;8.660;2023-03-01T03:48:30;9.50;;;7.45;;
13114;SDS011;6623;52.120;8.660;2023-03-01T03:50:58;10.88;;;7.82;;
13114;SDS011;6623;52.120;8.660;2023-03-01T03:53:24;9.93;;;7.07;;
13114;SDS011;6623;52.120;8.660;2023-03-01T03:55:53;10.63;;;7.68;;
13114;SDS011;6623;52.120;8.660;2023-03-01T03:58:20;9.80;;;7.63;;
13114;SDS011;6623;52.120;8.660;2023-03-01T04:00:49;10.65;;;7.95;;
13114;SDS011;6623;52.120;8.660;2023-03-01T04:03:16;10.02;;;7.75;;
13114;SDS011;6623;52.120;8.660;2023-03-01T04:05:43;10.07;;;7.88;;
13114;SDS011;6623;52.120;8.660;2023-03-01T04:08:10;11.02;;;7.80;;
13114;SDS011;6623;52.120;8.660;2023-03-01T04:10:37;11.07;;;7.83;;
13114;SDS011;6623;52.120;8.660;2023-03-01T04:13:04;11.70;;;7.72;;
13114;SDS011;6623;52.120;8.660;2023-03-01T04:15:31;11.00;;;7.63;;
13114;SDS011;6623;52.120;8.660;2023-03-01T04:17:58;10.10;;;7.85;;
13114;SDS011;6623;52.120;8.660;2023-03-01T04:20:25;9.63;;;8.02;;
13114;SDS011;6623;52.120;8.660;2023-03-01T04:25:51;11.60;;;7.70;;
13114;SDS011;6623;52.120;8.660;2023-03-01T04:28:21;11.10;;;7.53;;
13114;SDS011;6623;52.120;8.660;2023-03-01T04:30:51;13.55;;;8.65;;
13114;SDS011;6623;52.120;8.660;2023-03-01T04:33:18;10.98;;;8.27;;
13114;SDS011;6623;52.120;8.660;2023-03-01T04:35:44;12.88;;;7.80;;
13114;SDS011;6623;52.120;8.660;2023-03-01T04:38:09;12.17;;;7.87;;
13114;SDS011;6623;52.120;8.660;2023-03-01T04:40:35;10.97;;;8.03;;
13114;SDS011;6623;52.120;8.660;2023-03-01T04:43:02;12.18;;;8.60;;
13114;SDS011;6623;52.120;8.660;2023-03-01T04:45:28;9.82;;;7.63;;
13114;SDS011;6623;52.120;8.660;2023-03-01T04:47:53;11.93;;;8.23;;
13114;SDS011;6623;52.120;8.660;2023-03-01T04:50:19;14.05;;;9.05;;
13114;SDS011;6623;52.120;8.660;2023-03-01T04:52:45;9.83;;;7.93;;
13114;SDS011;6623;52.120;8.660;2023-03-01T04:55:12;13.52;;;8.20;;
13114;SDS011;6623;52.120;8.660;2023-03-01T04:57:39;10.90;;;7.68;;
13114;SDS011;6623;52.120;8.660;2023-03-01T05:00:05;13.83;;;8.57;;
13114;SDS011;6623;52.120;8.660;2023-03-01T05:02:46;11.40;;;8.65;;
13114;SDS011;6623;52.120;8.660;2023-03-01T05:05:14;9.95;;;8.07;;
13114;SDS011;6623;52.120;8.660;2023-03-01T05:07:40;10.40;;;7.45;;
13114;SDS011;6623;52.120;8.660;2023-03-01T05:10:05;10.47;;;8.23;;
13114;SDS011;6623;52.120;8.660;2023-03-01T05:12:31;11.30;;;7.50;;
13114;SDS011;6623;52.120;8.660;2023-03-01T05:14:57;10.77;;;7.90;;
13114;SDS011;6623;52.120;8.660;2023-03-01T05:17:23;12.95;;;8.68;;
13114;SDS011;6623;52.120;8.660;2023-03-01T05:19:49;12.07;;;8.57;;
13114;SDS011;6623;52.120;8.660;2023-03-01T05:22:15;11.52;;;8.82;;
13114;SDS011;6623;52.120;8.660;2023-03-01T05:24:41;11.18;;;8.07;;
13114;SDS011;6623;52.120;8.660;2023-03-01T05:27:06;11.87;;;7.77;;
13114;SDS011;6623;52.120;8.660;2023-03-01T05:29:32;11.13;;;8.17;;
13114;SDS011;6623;52.120;8.660;2023-03-01T05:32:00;10.38;;;8.98;;
13114;SDS011;6623;52.120;8.660;2023-03-01T05:34:28;11.70;;;8.27;;
13114;SDS011;6623;52.120;8.660;2023-03-01T05:36:55;11.98;;;8.82;;
13114;SDS011;6623;52.120;8.660;2023-03-01T05:39:22;10.03;;;8.33;;
13114;SDS011;6623;52.120;8.660;2023-03-01T05:41:52;10.13;;;8.18;;
13114;SDS011;6623;52.120;8.660;2023-03-01T05:44:20;10.35;;;8.10;;
13114;SDS011;6623;52.120;8.660;2023-03-01T05:46:45;11.93;;;8.85;;
13114;SDS011;6623;52.120;8.660;2023-03-01T05:49:12;12.77;;;8.40;;
13114;SDS011;6623;52.120;8.660;2023-03-01T05:51:38;10.82;;;7.90;;
13114;SDS011;6623;52.120;8.660;2023-03-01T05:54:05;12.95;;;8.18;;
13114;SDS011;6623;52.120;8.660;2023-03-01T05:56:33;10.00;;;7.85;;
13114;SDS011;6623;52.120;8.660;2023-03-01T05:59:00;12.20;;;7.88;;
13114;SDS011;6623;52.120;8.660;2023-03-01T06:01:26;10.68;;;8.50;;
13114;SDS011;6623;52.120;8.660;2023-03-01T06:03:52;12.00;;;7.57;;
13114;SDS011;6623;52.120;8.660;2023-03-01T06:06:18;11.27;;;8.40;;
13114;SDS011;6623;52.120;8.660;2023-03-01T06:08:44;9.73;;;8.20;;
13114;SDS011;6623;52.120;8.660;2023-03-01T06:11:09;10.63;;;8.53;;
13114;SDS011;6623;52.120;8.660;2023-03-01T06:13:35;11.60;;;8.40;;
13114;SDS011;6623;52.120;8.660;2023-03-01T06:16:03;12.37;;;8.43;;
13114;SDS011;6623;52.120;8.660;2023-03-01T06:18:30;11.82;;;8.23;;
13114;SDS011;6623;52.120;8.660;2023-03-01T06:20:55;10.43;;;8.70;;
13114;SDS011;6623;52.120;8.660;2023-03-01T06:23:22;11.93;;;8.07;;
13114;SDS011;6623;52.120;8.660;2023-03-01T06:25:48;12.13;;;8.50;;
13114;SDS011;6623;52.120;8.660;2023-03-01T06:28:13;12.50;;;8.60;;
13114;SDS011;6623;52.120;8.660;2023-03-01T06:30:39;12.00;;;8.40;;
13114;SDS011;6623;52.120;8.660;2023-03-01T06:33:04;12.97;;;8.27;;
13114;SDS011;6623;52.120;8.660;2023-03-01T06:35:30;10.90;;;7.97;;
13114;SDS011;6623;52.120;8.660;2023-03-01T06:37:56;9.57;;;7.70;;
13114;SDS011;6623;52.120;8.660;2023-03-01T06:40:22;12.02;;;7.97;;
13114;SDS011;6623;52.120;8.660;2023-03-01T06:42:49;12.53;;;8.30;;
13114;SDS011;6623;52.120;8.660;2023-03-01T06:45:15;11.20;;;8.43;;
13114;SDS011;6623;52.120;8.660;2023-03-01T06:47:42;12.18;;;8.35;;
13114;SDS011;6623;52.120;8.660;2023-03-01T06:50:08;11.07;;;8.53;;
13114;SDS011;6623;52.120;8.660;2023-03-01T06:52:34;12.38;;;8.23;;
13114;SDS011;6623;52.120;8.660;2023-03-01T06:54:59;11.47;;;8.40;;
13114;SDS011;6623;52.120;8.660;2023-03-01T06:57:25;10.87;;;8.80;;
13114;SDS011;6623;52.120;8.660;2023-03-01T06:59:52;13.10;;;9.13;;
13114;SDS011;6623;52.120;8.660;2023-03-01T07:02:17;13.37;;;9.03;;
13114;SDS011;6623;52.120;8.660;2023-03-01T07:04:43;10.87;;;8.57;;
13114;SDS011;6623;52.120;8.660;2023-03-01T07:07:08;16.30;;;9.37;;
13114;SDS011;6623;52.120;8.660;2023-03-01T07:09:34;13.70;;;8.60;;
13114;SDS011;6623;52.120;8.660;2023-03-01T07:12:00;13.50;;;9.60;;
13114;SDS011;6623;52.120;8.660;2023-03-01T07:14:26;15.23;;;9.77;;
13114;SDS011;6623;52.120;8.660;2023-03-01T07:16:52;16.53;;;9.47;;
13114;SDS011;6623;52.120;8.660;2023-03-01T07:19:19;13.82;;;9.52;;
13114;SDS011;6623;52.120;8.660;2023-03-01T07:21:45;13.45;;;9.38;;
13114;SDS011;6623;52.120;8.660;2023-03-01T07:24:10;13.03;;;9.57;;
13114;SDS011;6623;52.120;8.660;2023-03-01T07:26:36;15.33;;;9.13;;
13114;SDS011;6623;52.120;8.660;2023-03-01T07:29:03;12.63;;;9.60;;
13114;SDS011;6623;52.120;8.660;2023-03-01T07:31:30;14.25;;;9.80;;
13114;SDS011;6623;52.120;8.660;2023-03-01T07:33:56;18.50;;;10.80;;
13114;SDS011;6623;52.120;8.660;2023-03-01T07:36:22;14.20;;;10.67;;
13114;SDS011;6623;52.120;8.660;2023-03-01T07:38:48;14.80;;;11.52;;
13114;SDS011;6623;52.120;8.660;2023-03-01T07:41:14;18.97;;;11.73;;
13114;SDS011;6623;52.120;8.660;2023-03-01T07:43:39;16.20;;;12.70;;
13114;SDS011;6623;52.120;8.660;2023-03-01T07:46:05;18.80;;;14.43;;
13114;SDS011;6623;52.120;8.660;2023-03-01T07:48:32;20.57;;;15.37;;
13114;SDS011;6623;52.120;8.660;2023-03-01T07:50:58;26.23;;;17.45;;
13114;SDS011;6623;52.120;8.660;2023-03-01T07:53:25;23.58;;;17.67;;
13114;SDS011;6623;52.120;8.660;2023-03-01T07:55:59;23.97;;;17.23;;
13114;SDS011;6623;52.120;8.660;2023-03-01T07:58:29;26.65;;;18.42;;
13114;SDS011;6623;52.120;8.660;2023-03-01T08:00:54;29.80;;;18.73;;
13114;SDS011;6623;52.120;8.660;2023-03-01T08:03:20;24.97;;;17.57;;
13114;SDS011;6623;52.120;8.660;2023-03-01T08:05:45;23.97;;;17.60;;
13114;SDS011;6623;52.120;8.660;2023-03-01T08:08:11;27.93;;;18.80;;
13114;SDS011;6623;52.120;8.660;2023-03-01T08:10:36;28.27;;;19.80;;
13114;SDS011;6623;52.120;8.660;2023-03-01T08:13:02;31.07;;;20.07;;
13114;SDS011;6623;52.120;8.660;2023-03-01T08:15:27;30.20;;;20.30;;
13114;SDS011;6623;52.120;8.660;2023-03-01T08:17:53;27.13;;;19.80;;
13114;SDS011;6623;52.120;8.660;2023-03-01T08:20:19;29.80;;;20.00;;
13114;SDS011;6623;52.120;8.660;2023-03-01T08:22:44;30.83;;;22.53;;
13114;SDS011;6623;52.120;8.660;2023-03-01T08:25:10;34.00;;;21.77;;
13114;SDS011;6623;52.120;8.660;2023-03-01T08:27:35;26.23;;;19.03;;
13114;SDS011;6623;52.120;8.660;2023-03-01T08:30:01;25.47;;;17.23;;
13114;SDS011;6623;52.120;8.660;2023-03-01T08:32:26;21.20;;;14.87;;
13114;SDS011;6623;52.120;8.660;2023-03-01T08:34:52;20.40;;;14.83;;
13114;SDS011;6623;52.120;8.660;2023-03-01T08:37:17;24.63;;;17.10;;
13114;SDS011;6623;52.120;8.660;2023-03-01T08:39:43;23.67;;;15.13;;
13114;SDS011;6623;52.120;8.660;2023-03-01T08:42:09;22.53;;;16.03;;
13114;SDS011;6623;52.120;8.660;2023-03-01T08:44:34;26.67;;;14.70;;
13114;SDS011;6623;52.120;8.660;2023-03-01T08:47:00;24.70;;;17.23;;
13114;SDS011;6623;52.120;8.660;2023-03-01T08:49:27;21.63;;;14.95;;
13114;SDS011;6623;52.120;8.660;2023-03-01T08:51:53;20.40;;;15.20;;
13114;SDS011;6623;52.120;8.660;2023-03-01T08:54:20;23.08;;;13.55;;
13114;SDS011;6623;52.120;8.660;2023-03-01T08:56:46;16.90;;;13.10;;
13114;SDS011;6623;52.120;8.660;2023-03-01T08:59:13;16.17;;;12.43;;
13114;SDS011;6623;52.120;8.660;2023-03-01T09:01:41;13.82;;;9.75;;
13114;SDS011;6623;52.120;8.660;2023-03-01T09:04:08;16.02;;;11.50;;
13114;SDS011;6623;52.120;8.660;2023-03-01T09:06:34;15.40;;;11.00;;
13114;SDS011;6623;52.120;8.660;2023-03-01T09:09:00;20.10;;;11.60;;
13114;SDS011;6623;52.120;8.660;2023-03-01T09:11:25;14.20;;;9.77;;
13114;SDS011;6623;52.120;8.660;2023-03-01T09:13:51;11.87;;;7.43;;
13114;SDS011;6623;52.120;8.660;2023-03-01T09:16:18;10.83;;;6.93;;
13114;SDS011;6623;52.120;8.660;2023-03-01T09:18:45;9.98;;;6.93;;
13114;SDS011;6623;52.120;8.660;2023-03-01T09:21:16;11.23;;;7.47;;
13114;SDS011;6623;52.120;8.660;2023-03-01T09:23:43;8.85;;;5.97;;
13114;SDS011;6623;52.120;8.660;2023-03-01T09:26:19;8.73;;;5.80;;
13114;SDS011;6623;52.120;8.660;2023-03-01T09:28:49;7.82;;;5.55;;
13114;SDS011;6623;52.120;8.660;2023-03-01T09:31:16;10.57;;;6.20;;
13114;SDS011;6623;52.120;8.660;2023-03-01T09:33:45;7.70;;;5.43;;
13114;SDS011;6623;52.120;8.660;2023-03-01T09:36:13;6.67;;;5.07;;
13114;SDS011;6623;52.120;8.660;2023-03-01T09:38:40;5.97;;;4.93;;
13114;SDS011;6623;52.120;8.660;2023-03-01T09:41:10;8.00;;;5.40;;
13114;SDS011;6623;52.120;8.660;2023-03-01T09:46:18;8.10;;;5.10;;
13114;SDS011;6623;52.120;8.660;2023-03-01T09:48:58;6.40;;;5.00;;
13114;SDS011;6623;52.120;8.660;2023-03-01T09:51:31;9.07;;;4.77;;
13114;SDS011;6623;52.120;8.660;2023-03-01T09:54:00;9.60;;;5.40;;
13114;SDS011;6623;52.120;8.660;2023-03-01T09:56:41;6.27;;;4.47;;
13114;SDS011;6623;52.120;8.660;2023-03-01T09:59:26;5.70;;;4.43;;
13114;SDS011;6623;52.120;8.660;2023-03-01T10:01:56;7.00;;;4.93;;
13114;SDS011;6623;52.120;8.660;2023-03-01T10:04:48;8.37;;;4.63;;
13114;SDS011;6623;52.120;8.660;2023-03-01T10:10:27;7.17;;;4.10;;
13114;SDS011;6623;52.120;8.660;2023-03-01T10:13:06;4.37;;;3.50;;
13114;SDS011;6623;52.120;8.660;2023-03-01T10:15:43;5.77;;;4.07;;
13114;SDS011;6623;52.120;8.660;2023-03-01T10:18:14;5.77;;;3.90;;
13114;SDS011;6623;52.120;8.660;2023-03-01T10:20:54;5.57;;;4.07;;
13114;SDS011;6623;52.120;8.660;2023-03-01T10:23:24;7.23;;;4.13;;
13114;SDS011;6623;52.120;8.660;2023-03-01T10:28:47;6.90;;;4.33;;
13114;SDS011;6623;52.120;8.660;2023-03-01T10:34:19;5.80;;;3.73;;
13114;SDS011;6623;52.120;8.660;2023-03-01T10:37:08;5.43;;;3.87;;
13114;SDS011;6623;52.120;8.660;2023-03-01T10:42:39;4.87;;;3.50;;
13114;SDS011;6623;52.120;8.660;2023-03-01T10:48:08;4.47;;;3.60;;
13114;SDS011;6623;52.120;8.660;2023-03-01T10:50:45;5.40;;;3.77;;
13114;SDS011;6623;52.120;8.660;2023-03-01T10:53:20;5.57;;;4.00;;
13114;SDS011;6623;52.120;8.660;2023-03-01T10:56:12;5.07;;;3.70;;
13114;SDS011;6623;52.120;8.660;2023-03-01T10:58:40;6.00;;;4.13;;
13114;SDS011;6623;52.120;8.660;2023-03-01T11:03:54;4.97;;;3.87;;
13114;SDS011;6623;52.120;8.660;2023-03-01T11:06:31;5.97;;;4.03;;
13114;SDS011;6623;52.120;8.660;2023-03-01T11:08:57;5.37;;;3.97;;
13114;SDS011;6623;52.120;8.660;2023-03-01T11:11:39;5.97;;;4.13;;
13114;SDS011;6623;52.120;8.660;2023-03-01T11:14:20;5.57;;;3.63;;
13114;SDS011;6623;52.120;8.660;2023-03-01T11:16:48;6.67;;;3.90;;
13114;SDS011;6623;52.120;8.660;2023-03-01T11:19:23;8.20;;;3.80;;
13114;SDS011;6623;52.120;8.660;2023-03-01T11:22:03;7.20;;;4.27;;
13114;SDS011;6623;52.120;8.660;2023-03-01T11:24:42;4.57;;;3.63;;
13114;SDS011;6623;52.120;8.660;2023-03-01T11:27:18;5.17;;;3.60;;
13114;SDS011;6623;52.120;8.660;2023-03-01T11:29:52;5.03;;;3.60;;
13114;SDS011;6623;52.120;8.660;2023-03-01T11:32:43;6.73;;;4.00;;
13114;SDS011;6623;52.120;8.660;2023-03-01T11:35:17;4.60;;;3.80;;
13114;SDS011;6623;52.120;8.660;2023-03-01T11:37:56;7.37;;;3.93;;
13114;SDS011;6623;52.120;8.660;2023-03-01T11:40:35;7.27;;;3.90;;
13114;SDS011;6623;52.120;8.660;2023-03-01T11:43:14;5.80;;;3.60;;
13114;SDS011;6623;52.120;8.660;2023-03-01T11:45:43;5.13;;;3.63;;
13114;SDS011;6623;52.120;8.660;2023-03-01T11:54:04;5.70;;;4.10;;
13114;SDS011;6623;52.120;8.660;2023-03-01T11:56:46;5.37;;;3.97;;
13114;SDS011;6623;52.120;8.660;2023-03-01T12:02:16;7.67;;;4.20;;
13114;SDS011;6623;52.120;8.660;2023-03-01T12:10:26;5.00;;;3.83;;
13114;SDS011;6623;52.120;8.660;2023-03-01T12:12:58;7.37;;;4.37;;
13114;SDS011;6623;52.120;8.660;2023-03-01T12:15:33;5.37;;;3.53;;
13114;SDS011;6623;52.120;8.660;2023-03-01T12:18:17;4.77;;;3.90;;
13114;SDS011;6623;52.120;8.660;2023-03-01T12:34:30;4.63;;;3.90;;
13114;SDS011;6623;52.120;8.660;2023-03-01T12:37:31;5.67;;;4.13;;
13114;SDS011;6623;52.120;8.660;2023-03-01T12:43:08;4.83;;;4.20;;
13114;SDS011;6623;52.120;8.660;2023-03-01T12:51:23;5.50;;;4.27;;
13114;SDS011;6623;52.120;8.660;2023-03-01T12:53:52;6.17;;;4.27;;
13114;SDS011;6623;52.120;8.660;2023-03-01T12:56:24;5.63;;;4.33;;
13114;SDS011;6623;52.120;8.660;2023-03-01T12:59:16;7.70;;;4.90;;
13114;SDS011;6623;52.120;8.660;2023-03-01T13:01:54;6.47;;;4.73;;
13114;SDS011;6623;52.120;8.660;2023-03-01T13:08:03;5.90;;;4.37;;
13114;SDS011;6623;52.120;8.660;2023-03-01T13:10:46;6.27;;;5.00;;
13114;SDS011;6623;52.120;8.660;2023-03-01T13:13:19;7.20;;;4.37;;
13114;SDS011;6623;52.120;8.660;2023-03-01T13:15:46;6.33;;;4.73;;
13114;SDS011;6623;52.120;8.660;2023-03-01T13:20:46;6.53;;;4.50;;
13114;SDS011;6623;52.120;8.660;2023-03-01T13:28:49;5.70;;;3.83;;
13114;SDS011;6623;52.120;8.660;2023-03-01T13:33:53;5.80;;;4.10;;
13114;SDS011;6623;52.120;8.660;2023-03-01T13:46:44;6.27;;;4.20;;
13114;SDS011;6623;52.120;8.660;2023-03-01T13:49:11;4.83;;;3.80;;
13114;SDS011;6623;52.120;8.660;2023-03-01T13:51:40;5.87;;;4.13;;
13114;SDS011;6623;52.120;8.660;2023-03-01T13:54:11;6.13;;;4.00;;
13114;SDS011;6623;52.120;8.660;2023-03-01T13:56:38;5.47;;;4.23;;
13114;SDS011;6623;52.120;8.660;2023-03-01T13:59:06;4.63;;;4.13;;
13114;SDS011;6623;52.120;8.660;2023-03-01T14:01:42;10.67;;;4.80;;
13114;SDS011;6623;52.120;8.660;2023-03-01T14:04:20;6.97;;;4.57;;
13114;SDS011;6623;52.120;8.660;2023-03-01T14:09:55;5.93;;;4.10;;
13114;SDS011;6623;52.120;8.660;2023-03-01T14:12:31;7.27;;;4.50;;
13114;SDS011;6623;52.120;8.660;2023-03-01T14:15:22;7.80;;;4.20;;
13114;SDS011;6623;52.120;8.660;2023-03-01T14:18:13;7.37;;;4.47;;
13114;SDS011;6623;52.120;8.660;2023-03-01T14:20:46;6.03;;;4.40;;
13114;SDS011;6623;52.120;8.660;2023-03-01T14:23:17;7.43;;;3.33;;
13114;SDS011;6623;52.120;8.660;2023-03-01T14:25:51;4.83;;;3.73;;
13114;SDS011;6623;52.120;8.660;2023-03-01T14:28:31;6.27;;;4.13;;
13114;SDS011;6623;52.120;8.660;2023-03-01T14:30:59;8.63;;;4.67;;
13114;SDS011;6623;52.120;8.660;2023-03-01T14:33:33;6.47;;;4.17;;
13114;SDS011;6623;52.120;8.660;2023-03-01T14:36:10;7.57;;;3.83;;
13114;SDS011;6623;52.120;8.660;2023-03-01T14:41:17;5.70;;;3.80;;
13114;SDS011;6623;52.120;8.660;2023-03-01T14:43:46;5.27;;;3.53;;
13114;SDS011;6623;52.120;8.660;2023-03-01T14:46:23;5.03;;;3.37;;
13114;SDS011;6623;52.120;8.660;2023-03-01T14:48:52;5.47;;;3.33;;
13114;SDS011;6623;52.120;8.660;2023-03-01T14:51:21;6.30;;;3.80;;
13114;SDS011;6623;52.120;8.660;2023-03-01T14:53:46;5.33;;;4.37;;
13114;SDS011;6623;52.120;8.660;2023-03-01T14:56:13;4.17;;;3.30;;
13114;SDS011;6623;52.120;8.660;2023-03-01T14:58:42;4.77;;;3.60;;
13114;SDS011;6623;52.120;8.660;2023-03-01T15:01:10;3.80;;;3.07;;
13114;SDS011;6623;52.120;8.660;2023-03-01T15:03:42;6.07;;;3.27;;
13114;SDS011;6623;52.120;8.660;2023-03-01T15:06:11;4.17;;;2.57;;
13114;SDS011;6623;52.120;8.660;2023-03-01T15:08:41;4.87;;;3.30;;
13114;SDS011;6623;52.120;8.660;2023-03-01T15:13:47;3.47;;;2.80;;
13114;SDS011;6623;52.120;8.660;2023-03-01T15:16:21;5.07;;;3.10;;
13114;SDS011;6623;52.120;8.660;2023-03-01T15:18:53;4.43;;;2.80;;
13114;SDS011;6623;52.120;8.660;2023-03-01T15:21:25;2.37;;;2.17;;
13114;SDS011;6623;52.120;8.660;2023-03-01T15:23:57;4.63;;;2.40;;
13114;SDS011;6623;52.120;8.660;2023-03-01T15:26:37;4.47;;;2.80;;
13114;SDS011;6623;52.120;8.660;2023-03-01T15:29:17;2.83;;;2.40;;
13114;SDS011;6623;52.120;8.660;2023-03-01T15:31:52;5.40;;;3.00;;
13114;SDS011;6623;52.120;8.660;2023-03-01T15:34:39;3.73;;;2.47;;
13114;SDS011;6623;52.120;8.660;2023-03-01T15:37:05;4.93;;;2.67;;
13114;SDS011;6623;52.120;8.660;2023-03-01T15:39:52;3.90;;;2.27;;
13114;SDS011;6623;52.120;8.660;2023-03-01T15:45:07;3.83;;;2.30;;
13114;SDS011;6623;52.120;8.660;2023-03-01T15:47:34;6.47;;;2.20;;
13114;SDS011;6623;52.120;8.660;2023-03-01T15:50:03;3.37;;;2.30;;
13114;SDS011;6623;52.120;8.660;2023-03-01T15:52:32;3.60;;;2.40;;
13114;SDS011;6623;52.120;8.660;2023-03-01T15:55:05;3.20;;;2.40;;
13114;SDS011;6623;52.120;8.660;2023-03-01T15:57:40;4.33;;;2.70;;
13114;SDS011;6623;52.120;8.660;2023-03-01T16:00:06;3.20;;;2.33;;
13114;SDS011;6623;52.120;8.660;2023-03-01T16:02:38;3.77;;;2.47;;
13114;SDS011;6623;52.120;8.660;2023-03-01T16:05:05;3.60;;;2.10;;
13114;SDS011;6623;52.120;8.660;2023-03-01T16:07:37;3.40;;;2.10;;
13114;SDS011;6623;52.120;8.660;2023-03-01T16:10:04;3.43;;;2.37;;
13114;SDS011;6623;52.120;8.660;2023-03-01T16:12:30;3.07;;;2.40;;
13114;SDS011;6623;52.120;8.660;2023-03-01T16:14:56;3.40;;;2.47;;
13114;SDS011;6623;52.120;8.660;2023-03-01T16:17:22;3.57;;;2.23;;
13114;SDS011;6623;52.120;8.660;2023-03-01T16:19:48;3.33;;;2.40;;
13114;SDS011;6623;52.120;8.660;2023-03-01T16:22:13;3.80;;;2.57;;
13114;SDS011;6623;52.120;8.660;2023-03-01T16:24:39;3.63;;;2.60;;
13114;SDS011;6623;52.120;8.660;2023-03-01T16:27:06;3.00;;;2.30;;
13114;SDS011;6623;52.120;8.660;2023-03-01T16:29:31;4.00;;;2.33;;
13114;SDS011;6623;52.120;8.660;2023-03-01T16:31:59;3.63;;;2.50;;
13114;SDS011;6623;52.120;8.660;2023-03-01T16:34:26;2.97;;;2.17;;
13114;SDS011;6623;52.120;8.660;2023-03-01T16:36:51;3.30;;;2.53;;
13114;SDS011;6623;52.120;8.660;2023-03-01T16:39:17;3.70;;;2.53;;
13114;SDS011;6623;52.120;8.660;2023-03-01T16:41:43;4.00;;;2.60;;
13114;SDS011;6623;52.120;8.660;2023-03-01T16:44:08;4.90;;;2.60;;
13114;SDS011;6623;52.120;8.660;2023-03-01T16:46:34;4.57;;;2.83;;
13114;SDS011;6623;52.120;8.660;2023-03-01T16:48:59;4.33;;;2.73;;
13114;SDS011;6623;52.120;8.660;2023-03-01T16:51:25;3.80;;;2.50;;
13114;SDS011;6623;52.120;8.660;2023-03-01T16:53:51;4.47;;;2.67;;
13114;SDS011;6623;52.120;8.660;2023-03-01T16:56:17;4.87;;;2.90;;
13114;SDS011;6623;52.120;8.660;2023-03-01T16:58:43;2.87;;;2.30;;